Time;durP1;ratioP1;P1;durP2;ratioP2;P2;SDS_P1;SDS_P2;PMS_P1;PMS_P2;Temp;Humidity;BMP_temperature;BMP_pressure;BME280_temperature;BME280_humidity;BME280_pressure;Samples;Min_cycle;Max_cycle;Signal;HPM_P1;HPM_P2
2023/07/03 00:00:11;;;;;;;6.30;1.90;;;;;;;;;;5010892;28;20437;-87
2023/07/03 00:02:38;;;;;;;8.80;2.93;;;;;;;;;;4995305;28;20437;-87
2023/07/03 00:05:06;;;;;;;4.50;1.80;;;;;;;;;;4995454;28;20907;-87
2023/07/03 00:07:32;;;;;;;4.80;2.07;;;;;;;;;;4995763;28;20420;-87
2023/07/03 00:09:58;;;;;;;9.27;2.80;;;;;;;;;;5010423;28;20517;-91
2023/07/03 00:12:24;;;;;;;6.10;1.40;;;;;;;;;;4995382;28;20420;-90
2023/07/03 00:14:50;;;;;;;5.07;2.37;;;;;;;;;;4995729;28;20418;-88
2023/07/03 00:17:16;;;;;;;5.47;2.13;;;;;;;;;;4995991;28;20180;-89
2023/07/03 00:19:42;;;;;;;4.63;1.80;;;;;;;;;;4995675;28;20182;-87
2023/07/03 00:22:07;;;;;;;6.73;2.00;;;;;;;;;;4994630;28;20482;-88
2023/07/03 00:24:34;;;;;;;4.60;2.10;;;;;;;;;;5009947;28;20230;-88
2023/07/03 00:27:00;;;;;;;4.37;1.70;;;;;;;;;;5009883;28;20434;-87
2023/07/03 00:29:29;;;;;;;6.87;2.10;;;;;;;;;;4993921;28;20417;-88
2023/07/03 00:31:55;;;;;;;5.23;2.40;;;;;;;;;;4993593;28;21009;-90
2023/07/03 00:34:39;;;;;;;5.70;2.10;;;;;;;;;;4996957;28;20445;-86
2023/07/03 00:37:05;;;;;;;6.83;2.53;;;;;;;;;;4996279;28;20428;-87
2023/07/03 00:39:31;;;;;;;4.30;2.17;;;;;;;;;;4993230;28;20422;-89
2023/07/03 00:41:58;;;;;;;6.43;1.97;;;;;;;;;;4997617;28;20563;-89
2023/07/03 00:44:24;;;;;;;8.20;2.33;;;;;;;;;;4995015;28;20217;-87
2023/07/03 00:46:53;;;;;;;7.17;3.30;;;;;;;;;;4977441;28;20823;-93
2023/07/03 00:49:20;;;;;;;4.97;2.07;;;;;;;;;;4976810;28;20408;-88
2023/07/03 00:51:54;;;;;;;5.30;1.70;;;;;;;;;;4990876;28;20425;-86
2023/07/03 00:54:20;;;;;;;5.77;2.00;;;;;;;;;;4991518;28;20453;-87
2023/07/03 00:56:46;;;;;;;6.60;1.77;;;;;;;;;;4990545;28;20435;-86
2023/07/03 00:59:12;;;;;;;6.03;1.80;;;;;;;;;;4975435;28;20398;-88
2023/07/03 01:01:55;;;;;;;7.50;2.37;;;;;;;;;;4990496;28;20512;-92
2023/07/03 01:04:24;;;;;;;4.57;1.53;;;;;;;;;;4989402;28;20419;-86
2023/07/03 01:07:16;;;;;;;4.50;2.07;;;;;;;;;;4973256;28;20486;-87
2023/07/03 01:09:56;;;;;;;4.93;1.23;;;;;;;;;;4974166;28;20478;-87
2023/07/03 01:12:24;;;;;;;9.80;2.60;;;;;;;;;;4974328;28;20408;-86
2023/07/03 01:14:50;;;;;;;4.73;2.50;;;;;;;;;;4989103;28;20465;-87
2023/07/03 01:17:17;;;;;;;4.97;2.40;;;;;;;;;;4974890;28;20411;-87
2023/07/03 01:19:45;;;;;;;4.63;2.00;;;;;;;;;;4975523;28;20420;-86
2023/07/03 01:22:14;;;;;;;6.23;2.40;;;;;;;;;;4974185;28;20855;-87
2023/07/03 01:24:45;;;;;;;7.87;2.63;;;;;;;;;;4975639;28;20516;-87
2023/07/03 01:27:13;;;;;;;6.13;2.17;;;;;;;;;;4976095;28;20423;-86
2023/07/03 01:29:40;;;;;;;10.03;2.20;;;;;;;;;;4974029;28;20414;-86
2023/07/03 01:32:07;;;;;;;7.03;3.20;;;;;;;;;;4989225;28;20837;-86
2023/07/03 01:34:33;;;;;;;7.77;2.77;;;;;;;;;;4989371;28;20505;-86
2023/07/03 01:37:01;;;;;;;4.13;2.10;;;;;;;;;;4989492;28;20771;-86
2023/07/03 01:39:30;;;;;;;5.23;2.90;;;;;;;;;;4973938;28;20516;-86
2023/07/03 01:41:57;;;;;;;4.00;1.57;;;;;;;;;;4976149;28;20537;-92
2023/07/03 01:44:22;;;;;;;9.07;2.33;;;;;;;;;;4992979;28;20414;-93
2023/07/03 01:46:48;;;;;;;5.93;2.33;;;;;;;;;;4991253;28;20985;-89
2023/07/03 01:49:24;;;;;;;5.47;2.07;;;;;;;;;;4979410;28;20200;-86
2023/07/03 01:51:57;;;;;;;10.47;2.43;;;;;;;;;;4981976;28;20413;-94
2023/07/03 01:54:36;;;;;;;4.93;1.67;;;;;;;;;;5006432;28;20408;-94
2023/07/03 01:57:03;;;;;;;6.50;2.07;;;;;;;;;;5003620;28;20411;-87
2023/07/03 01:59:36;;;;;;;7.90;1.73;;;;;;;;;;5000605;28;20434;-87
2023/07/03 02:02:04;;;;;;;4.70;2.40;;;;;;;;;;5001135;28;20530;-89
2023/07/03 02:04:46;;;;;;;6.47;2.30;;;;;;;;;;5003150;28;20919;-94
2023/07/03 02:07:13;;;;;;;8.80;2.97;;;;;;;;;;4998441;28;20424;-87
2023/07/03 02:09:40;;;;;;;6.90;2.73;;;;;;;;;;5003751;28;20465;-95
2023/07/03 02:12:08;;;;;;;4.13;1.10;;;;;;;;;;5008159;28;20529;-92
2023/07/03 02:14:34;;;;;;;4.67;2.40;;;;;;;;;;5004467;28;20416;-87
2023/07/03 02:17:00;;;;;;;5.53;2.40;;;;;;;;;;5000550;28;20421;-92
2023/07/03 02:19:28;;;;;;;7.83;3.33;;;;;;;;;;5008562;28;20402;-93
2023/07/03 02:21:54;;;;;;;8.20;2.17;;;;;;;;;;5009982;28;20471;-95
2023/07/03 02:24:21;;;;;;;11.27;3.20;;;;;;;;;;4991067;28;20508;-94
2023/07/03 02:26:47;;;;;;;6.10;2.77;;;;;;;;;;5007647;28;20482;-93
2023/07/03 02:29:14;;;;;;;6.40;2.13;;;;;;;;;;5009435;28;20753;-93
2023/07/03 02:31:40;;;;;;;9.13;2.33;;;;;;;;;;5010281;28;20416;-94
2023/07/03 02:34:06;;;;;;;4.90;2.20;;;;;;;;;;5005906;28;20425;-94
2023/07/03 02:36:35;;;;;;;5.20;2.20;;;;;;;;;;5001245;28;20499;-89
2023/07/03 02:39:01;;;;;;;4.50;2.60;;;;;;;;;;4996919;28;20408;-87
2023/07/03 02:41:27;;;;;;;6.53;2.13;;;;;;;;;;4996560;28;20475;-87
2023/07/03 02:43:53;;;;;;;4.50;2.10;;;;;;;;;;4996795;28;20417;-88
2023/07/03 02:46:19;;;;;;;5.33;2.90;;;;;;;;;;4996226;28;20452;-86
2023/07/03 02:48:45;;;;;;;4.10;2.13;;;;;;;;;;4995274;28;20910;-93
2023/07/03 02:51:11;;;;;;;10.37;3.07;;;;;;;;;;4998103;28;20822;-90
2023/07/03 02:53:37;;;;;;;6.83;2.87;;;;;;;;;;4996501;28;20410;-88
2023/07/03 02:56:03;;;;;;;5.93;2.23;;;;;;;;;;4995841;28;20422;-93
2023/07/03 02:58:29;;;;;;;6.77;2.77;;;;;;;;;;4995451;28;20772;-87
2023/07/03 03:00:56;;;;;;;6.40;2.33;;;;;;;;;;4994941;28;20459;-93
2023/07/03 03:03:22;;;;;;;6.93;2.30;;;;;;;;;;4995221;28;20194;-86
2023/07/03 03:05:48;;;;;;;4.60;1.43;;;;;;;;;;4995901;28;20880;-87
2023/07/03 03:08:14;;;;;;;7.07;2.40;;;;;;;;;;4995150;28;20431;-87
2023/07/03 03:10:43;;;;;;;7.97;3.20;;;;;;;;;;4996956;28;20475;-87
2023/07/03 03:13:08;;;;;;;7.53;2.30;;;;;;;;;;4995842;28;20532;-86
2023/07/03 03:15:36;;;;;;;6.70;2.60;;;;;;;;;;4995929;28;20498;-86
2023/07/03 03:18:02;;;;;;;5.07;2.40;;;;;;;;;;4994885;28;20431;-87
2023/07/03 03:20:31;;;;;;;6.43;2.30;;;;;;;;;;4995094;28;20428;-86
2023/07/03 03:22:56;;;;;;;11.43;3.00;;;;;;;;;;4994508;28;20463;-87
2023/07/03 03:25:22;;;;;;;6.60;2.60;;;;;;;;;;4995892;28;20454;-86
2023/07/03 03:27:48;;;;;;;11.30;3.30;;;;;;;;;;4996192;28;20423;-85
2023/07/03 03:30:14;;;;;;;6.57;2.43;;;;;;;;;;4995250;28;20991;-88
2023/07/03 03:32:42;;;;;;;10.30;2.97;;;;;;;;;;4995403;28;20234;-87
2023/07/03 03:35:08;;;;;;;7.20;2.50;;;;;;;;;;4995615;28;20417;-86
2023/07/03 03:37:34;;;;;;;7.30;2.87;;;;;;;;;;4995408;28;20490;-87
2023/07/03 03:39:59;;;;;;;5.90;2.77;;;;;;;;;;4994845;28;20459;-86
2023/07/03 03:42:25;;;;;;;8.50;3.40;;;;;;;;;;4995725;28;20468;-91
2023/07/03 03:44:51;;;;;;;10.57;1.70;;;;;;;;;;4994868;28;20458;-85
2023/07/03 03:47:19;;;;;;;7.87;3.17;;;;;;;;;;4996198;28;20421;-87
2023/07/03 03:49:45;;;;;;;9.30;2.60;;;;;;;;;;4994305;28;20420;-87
2023/07/03 03:52:11;;;;;;;8.00;3.67;;;;;;;;;;4994100;28;20431;-86
2023/07/03 03:54:40;;;;;;;11.53;2.40;;;;;;;;;;4996617;28;20415;-86
2023/07/03 03:57:06;;;;;;;6.40;4.10;;;;;;;;;;4994034;28;20432;-86
2023/07/03 03:59:32;;;;;;;10.03;3.53;;;;;;;;;;4995156;28;20416;-85
2023/07/03 04:01:58;;;;;;;7.47;4.97;;;;;;;;;;4994861;28;20476;-86
2023/07/03 04:04:24;;;;;;;6.67;2.70;;;;;;;;;;4995132;28;20211;-86
2023/07/03 04:06:52;;;;;;;4.90;2.00;;;;;;;;;;4994792;28;20455;-85
2023/07/03 04:09:18;;;;;;;6.50;2.70;;;;;;;;;;4993483;28;20464;-87
2023/07/03 04:11:44;;;;;;;10.20;2.60;;;;;;;;;;4993675;28;20491;-88
2023/07/03 04:14:12;;;;;;;6.30;2.67;;;;;;;;;;4994542;28;20439;-86
2023/07/03 04:16:38;;;;;;;8.03;2.73;;;;;;;;;;4993849;28;20528;-87
2023/07/03 04:19:05;;;;;;;7.53;2.37;;;;;;;;;;4995327;28;20905;-87
2023/07/03 04:21:30;;;;;;;6.33;2.40;;;;;;;;;;5009622;28;20487;-86
2023/07/03 04:23:56;;;;;;;9.10;2.83;;;;;;;;;;4995559;28;20412;-84
2023/07/03 04:26:22;;;;;;;6.00;2.53;;;;;;;;;;4994485;28;20827;-86
2023/07/03 04:28:49;;;;;;;7.73;3.17;;;;;;;;;;4995217;28;20172;-86
2023/07/03 04:31:14;;;;;;;8.67;2.90;;;;;;;;;;5010591;28;20512;-94
2023/07/03 04:33:42;;;;;;;8.03;2.83;;;;;;;;;;5009881;28;20500;-85
2023/07/03 04:36:11;;;;;;;10.20;2.73;;;;;;;;;;5009386;28;20799;-87
2023/07/03 04:38:38;;;;;;;7.73;3.10;;;;;;;;;;4994364;28;20444;-87
2023/07/03 04:41:04;;;;;;;10.83;2.50;;;;;;;;;;4997785;28;20475;-86
2023/07/03 04:43:31;;;;;;;8.97;2.50;;;;;;;;;;5010951;28;20789;-86
2023/07/03 04:46:03;;;;;;;8.40;3.10;;;;;;;;;;4994700;28;20533;-85
2023/07/03 04:48:29;;;;;;;12.40;3.90;;;;;;;;;;5010774;28;20422;-88
2023/07/03 04:50:55;;;;;;;10.53;3.03;;;;;;;;;;4995700;28;20413;-89
2023/07/03 04:53:21;;;;;;;6.30;3.17;;;;;;;;;;4995709;28;20424;-87
2023/07/03 04:55:47;;;;;;;10.20;2.83;;;;;;;;;;4995472;28;20185;-86
2023/07/03 04:58:13;;;;;;;9.00;3.33;;;;;;;;;;5010142;28;20418;-86
2023/07/03 05:00:40;;;;;;;8.60;2.80;;;;;;;;;;4996315;28;20461;-86
2023/07/03 05:03:06;;;;;;;9.60;2.63;;;;;;;;;;4994846;28;21061;-83
2023/07/03 05:05:32;;;;;;;10.57;2.60;;;;;;;;;;4995273;28;20420;-88
2023/07/03 05:07:58;;;;;;;7.93;3.07;;;;;;;;;;5009897;28;20436;-85
2023/07/03 05:10:24;;;;;;;6.53;3.43;;;;;;;;;;4994403;28;20460;-87
2023/07/03 05:12:50;;;;;;;6.43;2.93;;;;;;;;;;4994822;28;20453;-85
2023/07/03 05:15:17;;;;;;;8.97;3.13;;;;;;;;;;5010009;28;20837;-88
2023/07/03 05:17:43;;;;;;;7.17;2.43;;;;;;;;;;4995609;28;20483;-86
2023/07/03 05:20:11;;;;;;;8.40;3.10;;;;;;;;;;4993898;28;20417;-87
2023/07/03 05:22:42;;;;;;;8.93;3.23;;;;;;;;;;4993944;28;20982;-88
2023/07/03 05:25:09;;;;;;;10.70;3.37;;;;;;;;;;4993912;28;20407;-88
2023/07/03 05:27:35;;;;;;;11.90;3.63;;;;;;;;;;4994547;28;20439;-89
2023/07/03 05:30:01;;;;;;;9.37;3.00;;;;;;;;;;4996054;28;20429;-86
2023/07/03 05:32:27;;;;;;;7.43;3.03;;;;;;;;;;4997967;28;20940;-91
2023/07/03 05:34:53;;;;;;;12.00;3.03;;;;;;;;;;5012227;28;20853;-86
2023/07/03 05:37:19;;;;;;;6.60;2.93;;;;;;;;;;4997753;28;20538;-85
2023/07/03 05:39:47;;;;;;;7.20;2.90;;;;;;;;;;4997155;28;20512;-85
2023/07/03 05:42:14;;;;;;;10.40;3.40;;;;;;;;;;4997353;28;20836;-90
2023/07/03 05:44:40;;;;;;;11.10;3.00;;;;;;;;;;5012493;28;20559;-86
2023/07/03 05:47:06;;;;;;;9.40;3.23;;;;;;;;;;5001170;28;20430;-86
2023/07/03 05:49:31;;;;;;;8.77;2.93;;;;;;;;;;5016053;28;20512;-89
2023/07/03 05:51:58;;;;;;;10.33;4.13;;;;;;;;;;5004046;28;20477;-91
2023/07/03 05:54:24;;;;;;;9.03;3.00;;;;;;;;;;5018633;28;20277;-88
2023/07/03 05:56:57;;;;;;;9.87;4.27;;;;;;;;;;4998907;28;20423;-93
2023/07/03 05:59:27;;;;;;;12.83;3.93;;;;;;;;;;4981830;28;20430;-90
2023/07/03 06:01:56;;;;;;;12.07;3.80;;;;;;;;;;5013665;28;20543;-90
2023/07/03 06:04:22;;;;;;;9.03;2.50;;;;;;;;;;4999215;28;20414;-94
2023/07/03 06:06:49;;;;;;;8.70;3.10;;;;;;;;;;4998838;28;20413;-87
2023/07/03 06:09:15;;;;;;;8.97;2.43;;;;;;;;;;4997202;28;20458;-84
2023/07/03 06:11:41;;;;;;;6.60;2.83;;;;;;;;;;4997259;28;20425;-85
2023/07/03 06:14:12;;;;;;;9.30;2.50;;;;;;;;;;5011556;28;20423;-83
2023/07/03 06:16:39;;;;;;;6.70;2.27;;;;;;;;;;4997104;28;20182;-86
2023/07/03 06:19:04;;;;;;;11.83;4.17;;;;;;;;;;4997134;28;20894;-86
2023/07/03 06:21:30;;;;;;;8.00;2.10;;;;;;;;;;4997245;28;20480;-83
2023/07/03 06:23:59;;;;;;;9.63;2.80;;;;;;;;;;4997473;28;20182;-83
2023/07/03 06:26:25;;;;;;;9.73;2.30;;;;;;;;;;4997335;28;20193;-87
2023/07/03 06:28:57;;;;;;;9.70;2.93;;;;;;;;;;5011588;28;20423;-84
2023/07/03 06:31:23;;;;;;;7.87;2.40;;;;;;;;;;5011704;28;20183;-88
2023/07/03 06:33:49;;;;;;;5.70;1.83;;;;;;;;;;5012329;28;20415;-84
2023/07/03 06:36:20;;;;;;;9.67;3.37;;;;;;;;;;4996788;28;20197;-93
2023/07/03 06:38:47;;;;;;;9.27;2.70;;;;;;;;;;4996448;28;20870;-86
2023/07/03 06:41:12;;;;;;;8.53;2.27;;;;;;;;;;5011521;28;20470;-84
2023/07/03 06:43:38;;;;;;;7.47;2.80;;;;;;;;;;4996225;28;20410;-86
2023/07/03 06:46:04;;;;;;;7.47;2.13;;;;;;;;;;5011776;28;20333;-82
2023/07/03 06:48:30;;;;;;;13.17;3.10;;;;;;;;;;4996242;28;20253;-83
2023/07/03 06:51:03;;;;;;;10.47;2.13;;;;;;;;;;4996419;28;20252;-86
2023/07/03 06:53:29;;;;;;;6.50;1.67;;;;;;;;;;4996395;28;20218;-85
2023/07/03 06:55:59;;;;;;;12.07;2.07;;;;;;;;;;4996398;28;20484;-82
2023/07/03 06:58:25;;;;;;;10.30;2.47;;;;;;;;;;4996301;28;20426;-85
2023/07/03 07:00:54;;;;;;;4.67;2.10;;;;;;;;;;4995992;28;20488;-84
2023/07/03 07:03:20;;;;;;;5.33;2.30;;;;;;;;;;4996342;28;20518;-87
2023/07/03 07:05:46;;;;;;;8.83;2.47;;;;;;;;;;5011364;28;20907;-85
2023/07/03 07:08:18;;;;;;;8.23;2.30;;;;;;;;;;5011103;28;20187;-86
2023/07/03 07:10:44;;;;;;;7.60;1.57;;;;;;;;;;4995947;28;20466;-82
2023/07/03 07:13:11;;;;;;;6.33;1.10;;;;;;;;;;4995736;28;20915;-84
2023/07/03 07:15:37;;;;;;;6.80;1.30;;;;;;;;;;5010492;28;20457;-81
2023/07/03 07:18:03;;;;;;;5.63;1.47;;;;;;;;;;4996002;28;20417;-94
2023/07/03 07:20:29;;;;;;;6.63;1.87;;;;;;;;;;5012616;28;20925;-85
2023/07/03 07:22:55;;;;;;;8.43;1.93;;;;;;;;;;4996540;28;20459;-93
2023/07/03 07:25:21;;;;;;;3.40;2.00;;;;;;;;;;4997329;28;20294;-85
2023/07/03 07:27:47;;;;;;;9.20;1.53;;;;;;;;;;4995661;28;20631;-85
2023/07/03 07:30:14;;;;;;;5.30;1.87;;;;;;;;;;4995206;28;20198;-86
2023/07/03 07:32:40;;;;;;;10.40;2.07;;;;;;;;;;4995536;28;20250;-85
2023/07/03 07:35:07;;;;;;;7.23;2.10;;;;;;;;;;4995447;28;20513;-84
2023/07/03 07:37:33;;;;;;;6.57;1.90;;;;;;;;;;5010397;28;20718;-82
2023/07/03 07:39:59;;;;;;;7.00;1.67;;;;;;;;;;4995599;28;20422;-82
2023/07/03 07:42:25;;;;;;;4.33;1.07;;;;;;;;;;4995405;28;20215;-84
2023/07/03 07:44:54;;;;;;;5.33;1.10;;;;;;;;;;4995087;28;20321;-84
2023/07/03 07:47:20;;;;;;;7.83;1.73;;;;;;;;;;4995129;28;20262;-82
2023/07/03 07:49:46;;;;;;;8.10;1.90;;;;;;;;;;4995170;28;20869;-82
2023/07/03 07:52:12;;;;;;;9.00;2.27;;;;;;;;;;4995027;28;20190;-83
2023/07/03 07:54:38;;;;;;;5.60;1.50;;;;;;;;;;4994977;28;20199;-83
2023/07/03 07:57:04;;;;;;;11.40;2.70;;;;;;;;;;4994989;28;20176;-90
2023/07/03 07:59:30;;;;;;;5.50;2.00;;;;;;;;;;4994660;28;20172;-87
2023/07/03 08:01:56;;;;;;;6.27;1.60;;;;;;;;;;4993615;28;20483;-86
2023/07/03 08:04:22;;;;;;;6.50;1.63;;;;;;;;;;4995022;28;20175;-85
2023/07/03 08:06:48;;;;;;;6.17;1.00;;;;;;;;;;4994760;28;20417;-84
2023/07/03 08:09:14;;;;;;;5.47;1.97;;;;;;;;;;4994526;28;20227;-86
2023/07/03 08:11:43;;;;;;;6.53;2.27;;;;;;;;;;4994981;28;20415;-86
2023/07/03 08:14:09;;;;;;;6.43;1.80;;;;;;;;;;4994804;28;20434;-83
2023/07/03 08:16:35;;;;;;;4.07;1.23;;;;;;;;;;4994800;28;20407;-86
2023/07/03 08:19:01;;;;;;;3.13;1.20;;;;;;;;;;4994705;28;20182;-86
2023/07/03 08:21:27;;;;;;;4.40;1.30;;;;;;;;;;4993273;28;20483;-85
2023/07/03 08:23:53;;;;;;;4.90;1.57;;;;;;;;;;4994440;28;20185;-84
2023/07/03 08:26:22;;;;;;;7.00;1.87;;;;;;;;;;4994423;28;20544;-86
2023/07/03 08:28:48;;;;;;;5.43;1.70;;;;;;;;;;4994696;28;20169;-84
2023/07/03 08:31:14;;;;;;;8.67;2.20;;;;;;;;;;4994467;28;20462;-85
2023/07/03 08:33:40;;;;;;;5.90;1.40;;;;;;;;;;4995214;28;20471;-86
2023/07/03 08:36:07;;;;;;;9.93;2.03;;;;;;;;;;4994473;28;20417;-81
2023/07/03 08:38:32;;;;;;;5.50;1.40;;;;;;;;;;4995350;28;20451;-84
2023/07/03 08:40:59;;;;;;;5.83;1.10;;;;;;;;;;4995818;28;20462;-84
2023/07/03 08:43:30;;;;;;;3.73;1.57;;;;;;;;;;5001638;28;20183;-83
2023/07/03 08:45:56;;;;;;;5.67;0.97;;;;;;;;;;4995072;28;20406;-87
2023/07/03 08:48:26;;;;;;;4.17;1.13;;;;;;;;;;4992810;28;20415;-86
2023/07/03 08:50:54;;;;;;;5.20;1.10;;;;;;;;;;4992747;28;20422;-85
2023/07/03 08:53:21;;;;;;;4.87;1.23;;;;;;;;;;4992805;28;20790;-83
2023/07/03 08:55:53;;;;;;;3.60;1.40;;;;;;;;;;4993188;28;20449;-84
2023/07/03 08:58:19;;;;;;;4.80;0.93;;;;;;;;;;4993780;28;20751;-88
2023/07/03 09:00:51;;;;;;;4.33;1.17;;;;;;;;;;4994022;28;20466;-84
2023/07/03 09:03:30;;;;;;;5.90;1.40;;;;;;;;;;4993431;28;20423;-85
2023/07/03 09:06:02;;;;;;;5.60;1.23;;;;;;;;;;4993794;28;20419;-86
2023/07/03 09:08:30;;;;;;;5.00;1.13;;;;;;;;;;4992630;28;20493;-88
2023/07/03 09:11:03;;;;;;;8.00;2.10;;;;;;;;;;4993995;28;20457;-86
2023/07/03 09:13:42;;;;;;;4.53;1.70;;;;;;;;;;4992358;28;20419;-84
2023/07/03 09:16:15;;;;;;;7.27;1.43;;;;;;;;;;4992581;28;20429;-85
2023/07/03 09:18:46;;;;;;;6.10;1.60;;;;;;;;;;4993723;28;20409;-85
2023/07/03 09:21:12;;;;;;;5.93;0.93;;;;;;;;;;4993635;28;20501;-88
2023/07/03 09:23:41;;;;;;;4.47;0.90;;;;;;;;;;4992140;28;20430;-88
2023/07/03 09:26:11;;;;;;;2.60;0.70;;;;;;;;;;4992569;28;20462;-87
2023/07/03 09:28:41;;;;;;;6.13;1.87;;;;;;;;;;4993358;28;20415;-84
2023/07/03 09:31:07;;;;;;;5.03;1.00;;;;;;;;;;4993728;28;20457;-83
2023/07/03 09:33:33;;;;;;;5.43;1.03;;;;;;;;;;4992788;28;20419;-90
2023/07/03 09:36:04;;;;;;;4.00;0.83;;;;;;;;;;4993926;28;20410;-92
2023/07/03 09:38:31;;;;;;;5.07;1.40;;;;;;;;;;4993179;28;20927;-91
2023/07/03 09:41:02;;;;;;;6.40;1.23;;;;;;;;;;4993825;28;20473;-87
2023/07/03 09:43:31;;;;;;;5.37;1.57;;;;;;;;;;4992192;28;20438;-87
2023/07/03 09:46:07;;;;;;;8.97;1.33;;;;;;;;;;4992755;28;20762;-91
2023/07/03 09:48:34;;;;;;;5.73;1.30;;;;;;;;;;4994294;28;20421;-90
2023/07/03 09:51:00;;;;;;;3.67;1.00;;;;;;;;;;4994002;28;20951;-85
2023/07/03 09:53:27;;;;;;;6.40;0.83;;;;;;;;;;4993770;28;20423;-86
2023/07/03 09:55:54;;;;;;;7.80;2.27;;;;;;;;;;4994107;28;20915;-90
2023/07/03 09:58:20;;;;;;;3.83;1.03;;;;;;;;;;4993363;28;20506;-91
2023/07/03 10:00:50;;;;;;;2.60;0.57;;;;;;;;;;4993450;28;20526;-87
2023/07/03 10:03:26;;;;;;;1.53;0.20;;;;;;;;;;4993839;28;20168;-90
2023/07/03 10:05:53;;;;;;;2.43;0.67;;;;;;;;;;4992565;28;20421;-88
2023/07/03 10:08:23;;;;;;;2.83;0.33;;;;;;;;;;4992214;28;20785;-87
2023/07/03 10:10:54;;;;;;;1.93;0.47;;;;;;;;;;4992989;28;20548;-90
2023/07/03 10:13:30;;;;;;;1.60;0.30;;;;;;;;;;4992238;28;20988;-87
2023/07/03 10:15:57;;;;;;;1.80;0.50;;;;;;;;;;4995948;28;20804;-88
2023/07/03 10:18:29;;;;;;;1.77;0.43;;;;;;;;;;4996995;28;20421;-92
2023/07/03 10:20:55;;;;;;;3.27;0.83;;;;;;;;;;4996911;28;20488;-87
2023/07/03 10:23:23;;;;;;;2.47;0.50;;;;;;;;;;4995773;28;20473;-88
2023/07/03 10:26:12;;;;;;;3.60;0.50;;;;;;;;;;4996961;28;20794;-86
2023/07/03 10:28:40;;;;;;;2.17;0.40;;;;;;;;;;4987642;28;20419;-84
2023/07/03 10:31:09;;;;;;;4.97;0.60;;;;;;;;;;4995487;28;20425;-86
2023/07/03 10:33:39;;;;;;;5.40;1.53;;;;;;;;;;4996507;28;20985;-88
2023/07/03 10:36:07;;;;;;;4.30;0.87;;;;;;;;;;4996627;28;20417;-85
2023/07/03 10:38:42;;;;;;;2.53;0.60;;;;;;;;;;4996611;28;20422;-88
2023/07/03 10:41:08;;;;;;;5.33;0.83;;;;;;;;;;4996593;28;20470;-88
2023/07/03 10:43:39;;;;;;;5.23;1.00;;;;;;;;;;4996378;28;20963;-89
2023/07/03 10:46:07;;;;;;;2.00;0.50;;;;;;;;;;4995389;28;20516;-88
2023/07/03 10:48:33;;;;;;;2.60;0.83;;;;;;;;;;4996395;28;20440;-85
2023/07/03 10:51:17;;;;;;;1.10;0.40;;;;;;;;;;4995140;28;20430;-85
2023/07/03 10:53:45;;;;;;;6.27;1.23;;;;;;;;;;4996266;28;20417;-82
2023/07/03 10:56:11;;;;;;;5.03;1.20;;;;;;;;;;4996386;28;20417;-89
2023/07/03 10:58:37;;;;;;;4.03;0.50;;;;;;;;;;4995841;28;20905;-87
2023/07/03 11:01:08;;;;;;;0.83;0.20;;;;;;;;;;4996167;28;20281;-88
2023/07/03 11:03:34;;;;;;;5.67;0.67;;;;;;;;;;4995344;28;20184;-83
2023/07/03 11:06:12;;;;;;;1.63;0.20;;;;;;;;;;4995007;28;20408;-89
2023/07/03 11:08:48;;;;;;;2.93;0.57;;;;;;;;;;4996720;28;20235;-84
2023/07/03 11:11:26;;;;;;;3.90;0.33;;;;;;;;;;4995548;28;20989;-88
2023/07/03 11:13:57;;;;;;;1.77;0.20;;;;;;;;;;4995571;28;20422;-90
2023/07/03 11:16:26;;;;;;;4.57;0.53;;;;;;;;;;4996088;28;20410;-89
2023/07/03 11:19:12;;;;;;;4.50;1.17;;;;;;;;;;4994943;28;20446;-89
2023/07/03 11:21:54;;;;;;;2.13;0.60;;;;;;;;;;4965213;28;20466;-89
2023/07/03 11:24:29;;;;;;;6.23;1.13;;;;;;;;;;4995368;28;20919;-87
2023/07/03 11:26:59;;;;;;;2.33;0.30;;;;;;;;;;4997370;28;20417;-91
2023/07/03 11:29:25;;;;;;;4.17;0.90;;;;;;;;;;4996911;28;20399;-90
2023/07/03 11:31:52;;;;;;;2.70;0.10;;;;;;;;;;4995632;28;20890;-93
2023/07/03 11:34:19;;;;;;;3.77;1.10;;;;;;;;;;4997833;28;20406;-92
2023/07/03 11:36:47;;;;;;;2.20;0.53;;;;;;;;;;4997978;28;20418;-92
2023/07/03 11:39:20;;;;;;;3.90;0.80;;;;;;;;;;4999317;28;20439;-93
2023/07/03 11:41:52;;;;;;;7.30;1.00;;;;;;;;;;4998986;28;20954;-91
2023/07/03 11:44:20;;;;;;;2.87;0.83;;;;;;;;;;4996638;28;20780;-92
2023/07/03 11:46:53;;;;;;;4.57;0.50;;;;;;;;;;4996900;28;20418;-92
2023/07/03 11:49:19;;;;;;;3.33;0.40;;;;;;;;;;4995079;28;20420;-92
2023/07/03 11:51:45;;;;;;;3.80;0.53;;;;;;;;;;4996957;28;20426;-93
2023/07/03 11:54:19;;;;;;;4.87;1.03;;;;;;;;;;4996751;28;20417;-91
2023/07/03 11:56:46;;;;;;;4.10;0.50;;;;;;;;;;4998132;28;20832;-90
2023/07/03 11:59:25;;;;;;;3.60;0.40;;;;;;;;;;4997916;28;20412;-91
2023/07/03 12:01:53;;;;;;;3.53;0.77;;;;;;;;;;4998121;28;20572;-94
2023/07/03 12:04:37;;;;;;;2.83;0.27;;;;;;;;;;4997106;28;20958;-86
2023/07/03 12:07:03;;;;;;;2.80;0.30;;;;;;;;;;4995318;28;20422;-91
2023/07/03 12:09:30;;;;;;;0.97;0.20;;;;;;;;;;4993666;28;20465;-88
2023/07/03 12:11:59;;;;;;;0.53;0.20;;;;;;;;;;4995190;28;20414;-89
2023/07/03 12:14:51;;;;;;;2.17;0.30;;;;;;;;;;4993650;28;20484;-88
2023/07/03 12:17:21;;;;;;;1.13;0.20;;;;;;;;;;4994876;28;20407;-90
2023/07/03 12:19:51;;;;;;;2.10;0.30;;;;;;;;;;4994622;28;20407;-84
2023/07/03 12:22:21;;;;;;;1.40;0.27;;;;;;;;;;4989277;28;20480;-87
2023/07/03 12:24:47;;;;;;;1.10;0.20;;;;;;;;;;4982306;28;20424;-87
2023/07/03 12:27:14;;;;;;;0.77;0.10;;;;;;;;;;5005846;28;20445;-87
2023/07/03 12:29:47;;;;;;;0.80;0.20;;;;;;;;;;4993823;28;20447;-87
2023/07/03 12:32:22;;;;;;;1.10;0.53;;;;;;;;;;4993707;28;20447;-87
2023/07/03 12:34:49;;;;;;;2.47;0.20;;;;;;;;;;4991831;28;20454;-87
2023/07/03 12:37:17;;;;;;;2.03;0.30;;;;;;;;;;4992772;28;20424;-86
2023/07/03 12:39:43;;;;;;;1.30;0.20;;;;;;;;;;4994081;28;20429;-88
2023/07/03 12:42:11;;;;;;;1.00;0.30;;;;;;;;;;4994636;28;20548;-91
2023/07/03 12:44:37;;;;;;;1.37;0.20;;;;;;;;;;4993589;28;20422;-87
2023/07/03 12:47:10;;;;;;;0.70;0.20;;;;;;;;;;4992645;28;20426;-86
2023/07/03 12:49:55;;;;;;;2.30;0.30;;;;;;;;;;4993768;28;20415;-86
2023/07/03 12:52:21;;;;;;;4.90;0.27;;;;;;;;;;5008832;28;20573;-84
2023/07/03 12:54:47;;;;;;;3.80;0.33;;;;;;;;;;4992713;28;20429;-86
2023/07/03 12:57:13;;;;;;;1.53;0.40;;;;;;;;;;5007148;28;20865;-85
2023/07/03 12:59:39;;;;;;;1.60;0.50;;;;;;;;;;4991105;28;20822;-86
2023/07/03 13:02:05;;;;;;;1.60;0.20;;;;;;;;;;4993770;28;20473;-85
2023/07/03 13:04:34;;;;;;;4.40;0.30;;;;;;;;;;5008913;28;20425;-87
2023/07/03 13:07:01;;;;;;;1.40;0.50;;;;;;;;;;5008049;28;20430;-83
2023/07/03 13:09:30;;;;;;;1.00;0.20;;;;;;;;;;4993336;28;20475;-88
2023/07/03 13:11:56;;;;;;;1.87;0.30;;;;;;;;;;4992171;28;20455;-86
2023/07/03 13:14:27;;;;;;;5.23;0.40;;;;;;;;;;4993059;28;20417;-84
2023/07/03 13:16:55;;;;;;;2.00;0.50;;;;;;;;;;4992839;28;20470;-85
2023/07/03 13:19:25;;;;;;;5.33;0.40;;;;;;;;;;4993253;28;20771;-86
2023/07/03 13:21:51;;;;;;;1.80;0.20;;;;;;;;;;5008134;28;20524;-85
2023/07/03 13:24:17;;;;;;;0.83;0.20;;;;;;;;;;4993322;28;20764;-84
2023/07/03 13:26:47;;;;;;;1.10;0.40;;;;;;;;;;4993136;28;20418;-86
2023/07/03 13:29:14;;;;;;;1.57;0.20;;;;;;;;;;4992876;28;20439;-86
2023/07/03 13:31:40;;;;;;;1.30;0.30;;;;;;;;;;5008094;28;20427;-86
2023/07/03 13:34:18;;;;;;;1.20;0.50;;;;;;;;;;4992991;28;20415;-86
2023/07/03 13:36:45;;;;;;;1.23;0.20;;;;;;;;;;4993118;28;20411;-84
2023/07/03 13:39:25;;;;;;;1.43;0.20;;;;;;;;;;5008339;28;20489;-87
2023/07/03 13:41:52;;;;;;;2.97;0.30;;;;;;;;;;5008034;28;20564;-87
2023/07/03 13:44:21;;;;;;;2.90;0.20;;;;;;;;;;5006905;28;20437;-86
2023/07/03 13:46:48;;;;;;;2.43;0.30;;;;;;;;;;4993023;28;20413;-87
2023/07/03 13:49:16;;;;;;;2.40;0.50;;;;;;;;;;4994977;28;20493;-86
2023/07/03 13:51:43;;;;;;;1.77;0.20;;;;;;;;;;4996862;28;20944;-86
2023/07/03 13:54:09;;;;;;;1.97;0.40;;;;;;;;;;4997036;28;20504;-88
2023/07/03 13:56:36;;;;;;;4.40;0.60;;;;;;;;;;5011607;28;21001;-86
2023/07/03 13:59:03;;;;;;;2.60;0.30;;;;;;;;;;4996601;28;20405;-82
2023/07/03 14:01:29;;;;;;;2.03;0.47;;;;;;;;;;5011736;28;20487;-86
2023/07/03 14:03:55;;;;;;;1.57;0.30;;;;;;;;;;4996629;28;20762;-83
2023/07/03 14:06:21;;;;;;;5.13;0.43;;;;;;;;;;4996773;28;20481;-85
2023/07/03 14:08:47;;;;;;;2.90;0.50;;;;;;;;;;4996799;28;20176;-86
2023/07/03 14:11:18;;;;;;;4.27;0.43;;;;;;;;;;4996453;28;20824;-85
2023/07/03 14:13:45;;;;;;;1.53;0.40;;;;;;;;;;4996252;28;20508;-83
2023/07/03 14:16:11;;;;;;;2.60;0.80;;;;;;;;;;4996588;28;20407;-87
2023/07/03 14:18:37;;;;;;;2.20;0.47;;;;;;;;;;4996519;28;20407;-84
2023/07/03 14:21:03;;;;;;;3.57;0.40;;;;;;;;;;4996563;28;20538;-87
2023/07/03 14:23:29;;;;;;;3.30;0.87;;;;;;;;;;4996449;28;20413;-86
2023/07/03 14:25:57;;;;;;;3.37;0.70;;;;;;;;;;5011603;28;20206;-85
2023/07/03 14:28:23;;;;;;;4.30;0.60;;;;;;;;;;5011031;28;20522;-85
2023/07/03 14:30:50;;;;;;;3.07;0.57;;;;;;;;;;4996153;28;20911;-84
2023/07/03 14:33:16;;;;;;;3.33;0.53;;;;;;;;;;4996321;28;20473;-85
2023/07/03 14:35:42;;;;;;;2.20;0.40;;;;;;;;;;5010626;28;20817;-86
2023/07/03 14:38:08;;;;;;;2.77;0.67;;;;;;;;;;4994993;28;20442;-85
2023/07/03 14:40:34;;;;;;;4.63;0.50;;;;;;;;;;5015588;28;20913;-84
2023/07/03 14:43:00;;;;;;;2.20;0.30;;;;;;;;;;5015148;28;20218;-85
2023/07/03 14:45:25;;;;;;;2.50;0.37;;;;;;;;;;5011425;28;20429;-91